createdAt,value
2023-10-16T00:00:42.065Z,5.30
2023-10-16T00:03:19.059Z,5.41
2023-10-16T00:05:53.048Z,5.39
2023-10-16T00:08:26.285Z,5.46
2023-10-16T00:11:02.503Z,5.35
2023-10-16T00:13:40.807Z,5.35
2023-10-16T00:16:17.735Z,5.42
2023-10-16T00:18:52.196Z,5.36
2023-10-16T00:21:26.430Z,5.39
2023-10-16T00:23:59.907Z,5.34
2023-10-16T00:26:33.209Z,5.30
2023-10-16T00:29:18.507Z,5.22
2023-10-16T00:31:54.332Z,5.20
2023-10-16T00:34:27.874Z,5.20
2023-10-16T00:37:03.017Z,5.15
2023-10-16T00:39:38.555Z,5.18
2023-10-16T00:42:12.340Z,5.12
2023-10-16T00:44:48.556Z,5.04
2023-10-16T00:47:21.820Z,5.01
2023-10-16T00:49:55.620Z,4.92
2023-10-16T00:52:28.849Z,4.90
2023-10-16T00:55:02.100Z,4.94
2023-10-16T00:57:36.306Z,4.94
2023-10-16T01:00:13.829Z,4.94
2023-10-16T01:02:47.191Z,4.98
2023-10-16T01:05:25.099Z,5.00
2023-10-16T01:07:59.379Z,4.98
2023-10-16T01:10:33.711Z,4.94
2023-10-16T01:13:10.545Z,4.91
2023-10-16T01:15:48.204Z,4.77
2023-10-16T01:18:21.539Z,4.73
2023-10-16T01:20:54.748Z,4.73
2023-10-16T01:23:29.321Z,4.74
2023-10-16T01:26:03.110Z,4.70
2023-10-16T01:28:36.368Z,4.69
2023-10-16T01:31:09.737Z,4.74
2023-10-16T01:33:45.796Z,4.73
2023-10-16T01:36:19.303Z,4.64
2023-10-16T01:38:53.940Z,4.66
2023-10-16T01:41:27.152Z,4.74
2023-10-16T01:44:04.511Z,4.66
2023-10-16T01:46:37.890Z,4.64
2023-10-16T01:49:11.587Z,4.69
2023-10-16T01:51:45.433Z,4.76
2023-10-16T01:54:23.918Z,4.69
2023-10-16T01:56:57.345Z,4.67
2023-10-16T01:59:30.542Z,4.67
2023-10-16T02:02:03.819Z,4.66
2023-10-16T02:04:38.478Z,4.70
2023-10-16T02:07:13.275Z,4.64
2023-10-16T02:09:48.343Z,4.60
2023-10-16T02:12:21.512Z,4.54
2023-10-16T02:14:55.204Z,4.52
2023-10-16T02:17:28.447Z,4.70
2023-10-16T02:20:12.379Z,4.71
2023-10-16T02:22:47.029Z,4.70
2023-10-16T02:25:24.648Z,4.71
2023-10-16T02:27:57.858Z,4.67
2023-10-16T02:30:36.616Z,4.61
2023-10-16T02:33:19.804Z,4.66
2023-10-16T02:35:54.637Z,4.69
2023-10-16T02:38:30.160Z,4.66
2023-10-16T02:41:05.764Z,4.76
2023-10-16T02:43:42.669Z,4.71
2023-10-16T02:46:19.753Z,4.73
2023-10-16T02:48:53.908Z,4.66
2023-10-16T02:51:27.183Z,4.59
2023-10-16T02:54:01.934Z,4.64
2023-10-16T02:56:37.631Z,4.61
2023-10-16T02:59:10.789Z,4.64
2023-10-16T03:01:46.522Z,4.57
2023-10-16T03:04:20.045Z,4.54
2023-10-16T03:06:55.809Z,4.53
2023-10-16T03:09:30.097Z,4.52
2023-10-16T03:12:09.728Z,4.56
2023-10-16T03:14:57.671Z,4.47
2023-10-16T03:17:36.404Z,4.50
2023-10-16T03:20:18.075Z,4.45
2023-10-16T03:22:52.859Z,4.49
2023-10-16T03:25:49.737Z,4.50
2023-10-16T03:28:24.273Z,4.50
2023-10-16T03:31:03.898Z,4.53
2023-10-16T03:33:37.350Z,4.57
2023-10-16T03:36:10.649Z,4.59
2023-10-16T03:38:44.137Z,4.54
2023-10-16T03:41:29.018Z,4.57
2023-10-16T03:44:15.378Z,4.54
2023-10-16T03:46:50.543Z,4.53
2023-10-16T03:49:24.269Z,4.53
2023-10-16T03:51:57.462Z,4.45
2023-10-16T03:54:32.628Z,4.49
2023-10-16T03:57:11.235Z,4.45
2023-10-16T03:59:48.581Z,4.42
2023-10-16T04:02:24.143Z,4.52
2023-10-16T04:04:59.375Z,4.54
2023-10-16T04:07:32.713Z,4.46
2023-10-16T04:10:22.862Z,4.53
2023-10-16T04:12:56.503Z,4.57
2023-10-16T04:16:01.101Z,4.52
2023-10-16T04:18:34.380Z,4.39
2023-10-16T04:21:29.670Z,4.30
2023-10-16T04:24:06.151Z,4.22
2023-10-16T04:26:58.523Z,4.30
2023-10-16T04:29:31.232Z,4.22
2023-10-16T04:32:20.909Z,4.10
2023-10-16T04:34:54.213Z,4.16
2023-10-16T04:37:38.394Z,4.07
2023-10-16T04:40:44.725Z,4.03
2023-10-16T04:43:38.711Z,4.07
2023-10-16T04:46:21.965Z,4.05
2023-10-16T04:48:56.212Z,4.06
2023-10-16T04:51:52.776Z,3.99
2023-10-16T04:54:29.594Z,3.96
2023-10-16T04:57:25.668Z,4.07
2023-10-16T05:00:13.675Z,3.95
2023-10-16T05:02:53.814Z,4.05
2023-10-16T05:05:47.147Z,4.02
2023-10-16T05:08:32.556Z,3.95
2023-10-16T05:11:23.229Z,3.98
2023-10-16T05:14:20.680Z,3.89
2023-10-16T05:17:08.362Z,3.85
2023-10-16T05:19:48.264Z,3.95
2023-10-16T05:22:40.665Z,3.99
2023-10-16T05:25:31.350Z,3.91
2023-10-16T05:28:22.353Z,3.91
2023-10-16T05:31:15.346Z,3.94
2023-10-16T05:34:06.250Z,3.95
2023-10-16T05:36:56.780Z,3.96
2023-10-16T05:39:49.241Z,4.07
2023-10-16T05:42:39.749Z,4.13
2023-10-16T05:45:30.242Z,4.20
2023-10-16T05:48:20.833Z,4.23
2023-10-16T05:51:11.363Z,4.26
2023-10-16T05:54:02.236Z,4.29
2023-10-16T05:56:54.022Z,4.37
2023-10-16T05:59:44.487Z,4.37
2023-10-16T06:02:34.902Z,4.35
2023-10-16T06:05:25.965Z,4.42
2023-10-16T06:08:16.393Z,4.52
2023-10-16T06:11:06.966Z,4.54
2023-10-16T06:13:59.124Z,4.63
2023-10-16T06:16:32.429Z,4.63
2023-10-16T06:19:08.901Z,4.66
2023-10-16T06:21:49.415Z,4.66
2023-10-16T06:24:34.238Z,4.67
2023-10-16T06:27:11.858Z,4.71
2023-10-16T06:29:51.023Z,4.74
2023-10-16T06:32:27.150Z,4.80
2023-10-16T06:35:02.571Z,4.80
2023-10-16T06:37:39.722Z,4.79
2023-10-16T06:40:18.462Z,4.80
2023-10-16T06:42:55.411Z,4.87
2023-10-16T06:45:41.770Z,4.95
2023-10-16T06:48:17.182Z,5.11
2023-10-16T06:50:55.573Z,5.11
2023-10-16T06:53:31.355Z,5.28
2023-10-16T06:56:04.894Z,5.25
2023-10-16T06:58:38.038Z,5.42
2023-10-16T07:01:20.724Z,5.55
2023-10-16T07:03:55.801Z,5.56
2023-10-16T07:06:33.939Z,5.58
2023-10-16T07:09:09.811Z,5.59
2023-10-16T07:11:44.546Z,5.69
2023-10-16T07:14:19.740Z,5.80
2023-10-16T07:16:54.330Z,5.92
2023-10-16T07:19:27.502Z,5.99
2023-10-16T07:22:02.050Z,6.11
2023-10-16T07:24:36.321Z,6.27
2023-10-16T07:27:13.698Z,6.38
2023-10-16T07:29:46.878Z,6.37
2023-10-16T07:32:23.051Z,6.58
2023-10-16T07:34:56.185Z,6.63
2023-10-16T07:37:29.345Z,6.64
2023-10-16T07:40:02.570Z,6.65
2023-10-16T07:42:36.738Z,6.87
2023-10-16T07:45:11.134Z,6.85
2023-10-16T07:47:46.062Z,6.85
2023-10-16T07:50:20.345Z,6.82
2023-10-16T07:52:53.502Z,7.05
2023-10-16T07:55:40.265Z,7.15
2023-10-16T07:58:24.401Z,7.29
2023-10-16T08:01:18.799Z,7.24
2023-10-16T08:03:53.713Z,7.39
2023-10-16T08:06:27.065Z,7.66
2023-10-16T08:09:14.535Z,7.74
2023-10-16T08:11:54.152Z,7.87
2023-10-16T08:14:28.915Z,8.12
2023-10-16T08:17:05.939Z,8.27
2023-10-16T08:19:40.910Z,8.34
2023-10-16T08:22:15.716Z,8.48
2023-10-16T08:25:00.008Z,8.66
2023-10-16T08:27:46.300Z,8.80
2023-10-16T08:30:34.466Z,8.83
2023-10-16T08:33:11.049Z,8.89
2023-10-16T08:35:46.463Z,9.00
2023-10-16T08:38:22.318Z,9.07
2023-10-16T08:41:01.313Z,9.14
2023-10-16T08:43:54.523Z,9.20
2023-10-16T08:46:33.136Z,9.26
2023-10-16T08:49:10.307Z,9.27
2023-10-16T08:51:45.011Z,9.31
2023-10-16T08:54:36.205Z,9.38
2023-10-16T08:57:12.779Z,9.57
2023-10-16T08:59:50.407Z,9.64
2023-10-16T09:02:27.612Z,9.74
2023-10-16T09:05:01.729Z,9.84
2023-10-16T09:07:41.130Z,9.96
2023-10-16T09:10:16.645Z,10.02
2023-10-16T09:12:55.639Z,10.22
2023-10-16T09:15:28.964Z,10.36
2023-10-16T09:18:02.239Z,10.29
2023-10-16T09:20:42.152Z,10.36
2023-10-16T09:23:17.746Z,10.36
2023-10-16T09:25:56.560Z,10.45
2023-10-16T09:28:33.700Z,10.61
2023-10-16T09:31:12.545Z,10.64
2023-10-16T09:33:49.477Z,10.66
2023-10-16T09:36:23.042Z,10.91
2023-10-16T09:39:01.632Z,11.00
2023-10-16T09:41:43.584Z,10.99
2023-10-16T09:44:24.704Z,11.18
2023-10-16T09:46:58.220Z,11.20
2023-10-16T09:49:34.868Z,11.39
2023-10-16T09:52:08.539Z,11.54
2023-10-16T09:54:43.241Z,11.61
2023-10-16T09:57:23.653Z,11.75
2023-10-16T10:00:01.743Z,11.93
2023-10-16T10:02:52.579Z,12.00
2023-10-16T10:05:35.874Z,12.05
2023-10-16T10:08:18.831Z,12.06
2023-10-16T10:11:28.871Z,12.06
2023-10-16T10:14:10.979Z,12.06
2023-10-16T10:16:51.555Z,12.22
2023-10-16T10:19:33.495Z,12.48
2023-10-16T10:22:18.428Z,13.12
2023-10-16T10:25:19.779Z,13.42
2023-10-16T10:28:10.684Z,13.91
2023-10-16T10:30:46.661Z,14.18
2023-10-16T10:33:38.723Z,14.02
2023-10-16T10:36:31.358Z,14.60
2023-10-16T10:39:40.763Z,14.81
2023-10-16T10:42:25.945Z,15.30
2023-10-16T10:45:22.405Z,15.30
2023-10-16T10:47:57.756Z,15.12
2023-10-16T10:50:34.050Z,15.20
2023-10-16T10:53:15.850Z,15.25
2023-10-16T10:55:57.286Z,14.93
2023-10-16T10:58:34.421Z,15.06
2023-10-16T11:01:27.701Z,15.30
2023-10-16T11:04:03.152Z,15.39
2023-10-16T11:06:43.816Z,15.29
2023-10-16T11:09:19.977Z,15.47
2023-10-16T11:11:55.959Z,15.96
2023-10-16T11:14:36.464Z,16.01
2023-10-16T11:17:11.063Z,16.05
2023-10-16T11:19:48.669Z,15.80
2023-10-16T11:22:24.973Z,15.84
2023-10-16T11:24:58.310Z,15.26
2023-10-16T11:27:35.702Z,15.23
2023-10-16T11:30:12.723Z,15.47
2023-10-16T11:32:51.092Z,15.69
2023-10-16T11:35:28.027Z,15.53
2023-10-16T11:38:05.540Z,15.69
2023-10-16T11:40:43.331Z,15.97
2023-10-16T11:43:20.460Z,15.96
2023-10-16T11:45:58.120Z,16.24
2023-10-16T11:48:40.901Z,15.96
2023-10-16T11:51:16.516Z,15.89
2023-10-16T11:53:49.673Z,15.79
2023-10-16T11:56:22.877Z,15.93
2023-10-16T11:58:56.436Z,15.94
2023-10-16T12:01:37.862Z,15.64
2023-10-16T12:04:21.495Z,15.33
2023-10-16T12:06:55.626Z,14.91
2023-10-16T12:09:38.055Z,14.64
2023-10-16T12:12:20.783Z,14.82
2023-10-16T12:14:54.716Z,14.88
2023-10-16T12:17:29.677Z,14.84
2023-10-16T12:20:10.437Z,14.82
2023-10-16T12:22:45.280Z,14.81
2023-10-16T12:25:19.727Z,14.82
2023-10-16T12:27:53.209Z,14.89
2023-10-16T12:30:28.968Z,14.87
2023-10-16T12:33:02.239Z,14.64
2023-10-16T12:35:37.064Z,14.41
2023-10-16T12:38:11.737Z,14.47
2023-10-16T12:40:44.927Z,14.40
2023-10-16T12:43:18.060Z,14.35
2023-10-16T12:45:52.271Z,14.31
2023-10-16T12:48:29.213Z,14.27
2023-10-16T12:51:11.919Z,14.30
2023-10-16T12:53:46.737Z,14.35
2023-10-16T12:56:22.185Z,14.35
2023-10-16T12:58:55.383Z,14.27
2023-10-16T13:01:28.840Z,14.24
2023-10-16T13:04:02.263Z,14.34
2023-10-16T13:06:37.084Z,14.49
2023-10-16T13:09:16.931Z,14.44
2023-10-16T13:11:50.210Z,14.38
2023-10-16T13:14:26.510Z,14.41
2023-10-16T13:16:59.914Z,14.63
2023-10-16T13:19:33.115Z,14.58
2023-10-16T13:22:12.304Z,14.47
2023-10-16T13:24:45.682Z,14.57
2023-10-16T13:27:21.771Z,14.48
2023-10-16T13:29:54.986Z,14.38
2023-10-16T13:32:29.294Z,14.34
2023-10-16T13:35:13.364Z,14.45
2023-10-16T13:37:49.691Z,14.71
2023-10-16T13:40:23.047Z,14.63
2023-10-16T13:43:01.611Z,14.64
2023-10-16T13:45:35.250Z,14.48
2023-10-16T13:48:11.304Z,14.49
2023-10-16T13:50:48.816Z,14.48
2023-10-16T13:53:23.508Z,14.48
2023-10-16T13:55:57.281Z,14.42
2023-10-16T13:58:30.579Z,14.37
2023-10-16T14:01:04.025Z,14.35
2023-10-16T14:03:37.265Z,14.51
2023-10-16T14:06:17.440Z,14.49
2023-10-16T14:08:54.428Z,14.27
2023-10-16T14:11:34.980Z,14.18
2023-10-16T14:14:11.276Z,14.31
2023-10-16T14:16:47.963Z,14.23
2023-10-16T14:19:23.754Z,14.17
2023-10-16T14:21:58.771Z,14.10
2023-10-16T14:24:35.419Z,13.91
2023-10-16T14:27:08.639Z,13.86
2023-10-16T14:29:46.502Z,13.80
2023-10-16T14:32:21.161Z,13.59
2023-10-16T14:34:54.359Z,13.53
2023-10-16T14:37:27.571Z,13.63
2023-10-16T14:40:05.804Z,13.66
2023-10-16T14:42:40.716Z,13.63
2023-10-16T14:45:13.908Z,13.65
2023-10-16T14:47:48.605Z,13.74
2023-10-16T14:50:25.543Z,13.79
2023-10-16T14:52:58.680Z,14.03
2023-10-16T14:55:33.777Z,14.23
2023-10-16T14:58:19.241Z,14.24
2023-10-16T15:01:02.233Z,13.90
2023-10-16T15:03:39.608Z,13.66
2023-10-16T15:06:14.207Z,13.56
2023-10-16T15:08:48.574Z,13.29
2023-10-16T15:11:23.517Z,13.04
2023-10-16T15:13:57.160Z,13.01
2023-10-16T15:16:30.580Z,13.02
2023-10-16T15:19:09.058Z,13.05
2023-10-16T15:21:43.246Z,13.12
2023-10-16T15:24:16.404Z,13.02
2023-10-16T15:26:51.001Z,13.01
2023-10-16T15:29:24.195Z,12.89
2023-10-16T15:31:57.989Z,12.76
2023-10-16T15:34:31.399Z,12.74
2023-10-16T15:37:05.926Z,12.77
2023-10-16T15:39:41.763Z,12.70
2023-10-16T15:42:16.289Z,12.65
2023-10-16T15:44:51.700Z,12.61
2023-10-16T15:47:27.490Z,12.64
2023-10-16T15:50:02.978Z,12.67
2023-10-16T15:52:36.355Z,12.71
2023-10-16T15:55:09.815Z,12.61
2023-10-16T15:57:47.355Z,12.47
2023-10-16T16:00:27.019Z,12.48
2023-10-16T16:03:01.435Z,12.44
2023-10-16T16:05:35.564Z,12.41
2023-10-16T16:08:10.313Z,12.29
2023-10-16T16:10:43.646Z,12.19
2023-10-16T16:13:18.367Z,12.15
2023-10-16T16:15:51.619Z,12.13
2023-10-16T16:18:24.892Z,12.06
2023-10-16T16:20:58.056Z,12.15
2023-10-16T16:23:31.206Z,11.99
2023-10-16T16:26:04.846Z,11.92
2023-10-16T16:28:40.564Z,11.87
2023-10-16T16:31:17.303Z,11.75
2023-10-16T16:33:52.267Z,11.66
2023-10-16T16:36:26.182Z,11.57
2023-10-16T16:38:59.888Z,11.58
2023-10-16T16:41:35.539Z,11.46
2023-10-16T16:44:10.663Z,11.44
2023-10-16T16:46:45.412Z,11.35
2023-10-16T16:49:19.144Z,11.32
2023-10-16T16:51:52.236Z,11.22
2023-10-16T16:54:27.934Z,11.08
2023-10-16T16:57:01.092Z,10.99
2023-10-16T16:59:36.838Z,10.90
2023-10-16T17:02:10.951Z,10.84
2023-10-16T17:04:45.359Z,10.81
2023-10-16T17:07:18.561Z,10.80
2023-10-16T17:09:51.842Z,10.76
2023-10-16T17:12:25.090Z,10.73
2023-10-16T17:15:02.703Z,10.74
2023-10-16T17:17:36.280Z,10.74
2023-10-16T17:20:13.043Z,10.70
2023-10-16T17:23:05.366Z,10.66
2023-10-16T17:25:41.563Z,10.61
2023-10-16T17:28:17.991Z,10.60
2023-10-16T17:30:52.666Z,10.53
2023-10-16T17:33:26.520Z,10.55
2023-10-16T17:36:03.434Z,10.55
2023-10-16T17:38:37.433Z,10.45
2023-10-16T17:41:10.580Z,10.43
2023-10-16T17:43:43.741Z,10.52
2023-10-16T17:46:18.359Z,10.43
2023-10-16T17:48:51.619Z,10.46
2023-10-16T17:51:26.469Z,10.43
2023-10-16T17:53:59.811Z,10.49
2023-10-16T17:56:34.285Z,10.50
2023-10-16T17:59:07.458Z,10.60
2023-10-16T18:01:42.600Z,10.57
2023-10-16T18:04:15.828Z,10.50
2023-10-16T18:06:52.086Z,10.36
2023-10-16T18:09:25.760Z,10.33
2023-10-16T18:12:04.886Z,10.32
2023-10-16T18:14:39.735Z,10.25
2023-10-16T18:17:14.294Z,10.20
2023-10-16T18:19:50.290Z,10.18
2023-10-16T18:22:25.889Z,10.16
2023-10-16T18:24:59.060Z,10.10
2023-10-16T18:27:33.419Z,10.09
2023-10-16T18:30:11.236Z,10.09
2023-10-16T18:32:46.583Z,10.08
2023-10-16T18:35:19.933Z,10.06
2023-10-16T18:37:53.146Z,10.18
2023-10-16T18:40:26.362Z,10.23
2023-10-16T18:42:59.681Z,10.13
2023-10-16T18:45:36.049Z,10.20
2023-10-16T18:48:11.234Z,10.09
2023-10-16T18:50:44.489Z,10.06
2023-10-16T18:53:17.708Z,9.96
2023-10-16T18:55:52.401Z,9.96
2023-10-16T18:58:26.120Z,9.94
2023-10-16T19:01:05.364Z,9.86
2023-10-16T19:03:40.047Z,9.91
2023-10-16T19:06:13.798Z,9.95
2023-10-16T19:08:47.117Z,9.77
2023-10-16T19:11:20.909Z,9.73
2023-10-16T19:13:55.250Z,9.64
2023-10-16T19:16:28.561Z,9.59
2023-10-16T19:19:03.353Z,9.61
2023-10-16T19:21:39.148Z,9.54
2023-10-16T19:24:14.698Z,9.45
2023-10-16T19:26:47.959Z,9.48
2023-10-16T19:29:21.208Z,9.41
2023-10-16T19:31:54.913Z,9.41
2023-10-16T19:34:30.159Z,9.40
2023-10-16T19:37:03.377Z,9.37
2023-10-16T19:39:36.734Z,9.31
2023-10-16T19:42:11.454Z,9.24
2023-10-16T19:44:44.719Z,9.17
2023-10-16T19:47:17.961Z,9.07
2023-10-16T19:49:52.568Z,9.00
2023-10-16T19:52:26.448Z,8.93
2023-10-16T19:54:59.590Z,8.87
2023-10-16T19:57:32.911Z,8.92
2023-10-16T20:00:18.047Z,8.82
2023-10-16T20:02:52.048Z,8.79
2023-10-16T20:05:27.178Z,8.80
2023-10-16T20:08:02.315Z,8.83
2023-10-16T20:10:37.305Z,8.83
2023-10-16T20:13:11.276Z,8.90
2023-10-16T20:15:47.534Z,9.00
2023-10-16T20:18:21.157Z,8.99
2023-10-16T20:21:02.883Z,8.84
2023-10-16T20:23:37.399Z,8.77
2023-10-16T20:26:17.031Z,8.99
2023-10-16T20:28:51.081Z,9.04
2023-10-16T20:31:25.929Z,8.93
2023-10-16T20:34:00.452Z,8.77
2023-10-16T20:36:36.706Z,8.76
2023-10-16T20:39:10.936Z,8.80
2023-10-16T20:41:44.242Z,8.82
2023-10-16T20:44:17.378Z,8.89
2023-10-16T20:46:51.428Z,8.93
2023-10-16T20:49:24.680Z,8.87
2023-10-16T20:51:59.473Z,8.96
2023-10-16T20:54:32.753Z,8.94
2023-10-16T20:57:06.445Z,8.92
2023-10-16T20:59:39.625Z,8.89
2023-10-16T21:02:13.226Z,8.93
2023-10-16T21:04:46.591Z,8.90
2023-10-16T21:07:21.226Z,9.03
2023-10-16T21:09:54.511Z,8.92
2023-10-16T21:12:27.790Z,8.83
2023-10-16T21:15:01.074Z,8.84
2023-10-16T21:17:34.435Z,8.83
2023-10-16T21:20:10.776Z,8.70
2023-10-16T21:22:47.185Z,8.68
2023-10-16T21:25:22.863Z,8.63
2023-10-16T21:27:56.085Z,8.66
2023-10-16T21:30:29.826Z,8.75
2023-10-16T21:33:03.778Z,8.87
2023-10-16T21:35:39.328Z,8.80
2023-10-16T21:38:13.838Z,8.69
2023-10-16T21:40:47.092Z,8.73
2023-10-16T21:43:20.651Z,8.75
2023-10-16T21:45:56.304Z,8.70
2023-10-16T21:48:29.689Z,8.73
2023-10-16T21:51:03.641Z,8.76
2023-10-16T21:53:39.104Z,8.77
2023-10-16T21:56:12.281Z,8.80
2023-10-16T21:58:45.865Z,8.73
2023-10-16T22:01:19.415Z,8.73
2023-10-16T22:03:54.284Z,8.75
2023-10-16T22:06:31.978Z,8.77
2023-10-16T22:09:11.190Z,8.72
2023-10-16T22:11:46.522Z,8.63
2023-10-16T22:14:21.155Z,8.63
2023-10-16T22:16:55.959Z,8.55
2023-10-16T22:19:31.230Z,8.50
2023-10-16T22:22:08.259Z,8.39
2023-10-16T22:24:43.394Z,8.41
2023-10-16T22:27:17.363Z,8.31
2023-10-16T22:29:50.712Z,8.25
2023-10-16T22:32:24.171Z,8.22
2023-10-16T22:34:57.327Z,8.21
2023-10-16T22:37:30.572Z,8.14
2023-10-16T22:40:09.335Z,8.18
2023-10-16T22:42:42.706Z,8.20
2023-10-16T22:45:16.875Z,8.05
2023-10-16T22:47:52.750Z,8.07
2023-10-16T22:50:26.177Z,7.98
2023-10-16T22:53:00.035Z,7.97
2023-10-16T22:55:37.007Z,7.93
2023-10-16T22:58:10.270Z,7.98
2023-10-16T23:00:44.358Z,8.04
2023-10-16T23:03:36.636Z,8.08
2023-10-16T23:06:11.186Z,8.02
2023-10-16T23:08:53.470Z,8.07
2023-10-16T23:11:50.449Z,8.01
2023-10-16T23:14:23.743Z,8.04
2023-10-16T23:17:19.069Z,8.04
2023-10-16T23:19:52.613Z,8.01
2023-10-16T23:22:26.199Z,7.87
2023-10-16T23:24:59.362Z,7.99
2023-10-16T23:27:34.021Z,7.78
2023-10-16T23:30:08.551Z,7.74
2023-10-16T23:32:41.831Z,7.62
2023-10-16T23:35:21.340Z,7.60
2023-10-16T23:37:54.569Z,7.64
2023-10-16T23:40:41.662Z,7.69
2023-10-16T23:43:16.829Z,7.70
2023-10-16T23:45:52.528Z,7.83
2023-10-16T23:48:32.571Z,7.91
2023-10-16T23:51:12.058Z,7.88
2023-10-16T23:53:48.885Z,7.97
2023-10-16T23:56:39.119Z,7.94
2023-10-16T23:59:15.286Z,8.05
